sensor_id;sensor_type;location;lat;lon;timestamp;pressure;altitude;pressure_sealevel;temperature;humidity
16461;BME280;8341;42.048;24.650;2022-08-23T00:02:14;96632.13;;;21.45;100.00
16461;BME280;8341;42.048;24.650;2022-08-23T00:04:42;96630.69;;;21.37;100.00
16461;BME280;8341;42.048;24.650;2022-08-23T00:07:13;96632.22;;;21.15;100.00
16461;BME280;8341;42.048;24.650;2022-08-23T00:09:42;96646.09;;;21.15;100.00
16461;BME280;8341;42.048;24.650;2022-08-23T00:12:11;96635.00;;;21.15;100.00
16461;BME280;8341;42.048;24.650;2022-08-23T00:14:43;96628.88;;;21.16;100.00
16461;BME280;8341;42.048;24.650;2022-08-23T00:17:11;96638.69;;;21.02;100.00
16461;BME280;8341;42.048;24.650;2022-08-23T00:19:40;96643.34;;;20.85;100.00
16461;BME280;8341;42.048;24.650;2022-08-23T00:22:07;96639.44;;;20.73;100.00
16461;BME280;8341;42.048;24.650;2022-08-23T00:24:35;96641.66;;;20.89;100.00
16461;BME280;8341;42.048;24.650;2022-08-23T00:27:07;96638.31;;;20.91;100.00
16461;BME280;8341;42.048;24.650;2022-08-23T00:29:38;96647.03;;;20.95;100.00
16461;BME280;8341;42.048;24.650;2022-08-23T00:32:06;96661.78;;;21.05;100.00
16461;BME280;8341;42.048;24.650;2022-08-23T00:34:33;96664.19;;;21.08;100.00
16461;BME280;8341;42.048;24.650;2022-08-23T00:37:01;96667.34;;;21.20;100.00
16461;BME280;8341;42.048;24.650;2022-08-23T00:39:28;96669.19;;;21.25;100.00
16461;BME280;8341;42.048;24.650;2022-08-23T00:41:58;96675.28;;;21.31;100.00
16461;BME280;8341;42.048;24.650;2022-08-23T00:44:29;96686.38;;;21.31;100.00
16461;BME280;8341;42.048;24.650;2022-08-23T00:47:15;96695.38;;;21.39;100.00
16461;BME280;8341;42.048;24.650;2022-08-23T00:50:08;96694.84;;;21.41;100.00
16461;BME280;8341;42.048;24.650;2022-08-23T00:52:43;96695.56;;;21.49;100.00
16461;BME280;8341;42.048;24.650;2022-08-23T00:55:13;96702.59;;;21.42;100.00
16461;BME280;8341;42.048;24.650;2022-08-23T00:57:41;96710.78;;;21.10;100.00
16461;BME280;8341;42.048;24.650;2022-08-23T01:00:10;96717.97;;;20.98;100.00
16461;BME280;8341;42.048;24.650;2022-08-23T01:02:38;96716.66;;;20.99;100.00
16461;BME280;8341;42.048;24.650;2022-08-23T01:05:06;96708.75;;;20.95;100.00
16461;BME280;8341;42.048;24.650;2022-08-23T01:07:41;96692.28;;;21.05;100.00
16461;BME280;8341;42.048;24.650;2022-08-23T01:10:16;96680.66;;;21.14;100.00
16461;BME280;8341;42.048;24.650;2022-08-23T01:12:49;96694.69;;;21.16;100.00
16461;BME280;8341;42.048;24.650;2022-08-23T01:15:23;96705.25;;;21.10;100.00
16461;BME280;8341;42.048;24.650;2022-08-23T01:17:54;96707.63;;;21.06;100.00
16461;BME280;8341;42.048;24.650;2022-08-23T01:20:23;96696.75;;;21.08;100.00
16461;BME280;8341;42.048;24.650;2022-08-23T01:22:55;96698.03;;;21.14;100.00
16461;BME280;8341;42.048;24.650;2022-08-23T01:25:28;96713.00;;;21.11;100.00
16461;BME280;8341;42.048;24.650;2022-08-23T01:27:56;96713.56;;;21.10;100.00
16461;BME280;8341;42.048;24.650;2022-08-23T01:30:25;96713.53;;;21.25;100.00
16461;BME280;8341;42.048;24.650;2022-08-23T01:32:55;96710.59;;;21.31;100.00
16461;BME280;8341;42.048;24.650;2022-08-23T01:35:30;96707.63;;;21.36;100.00
16461;BME280;8341;42.048;24.650;2022-08-23T01:37:59;96711.50;;;21.41;100.00
16461;BME280;8341;42.048;24.650;2022-08-23T01:40:28;96705.38;;;21.35;100.00
16461;BME280;8341;42.048;24.650;2022-08-23T01:42:57;96703.56;;;21.30;100.00
16461;BME280;8341;42.048;24.650;2022-08-23T01:45:24;96701.34;;;21.28;100.00
16461;BME280;8341;42.048;24.650;2022-08-23T01:47:51;96698.75;;;21.30;100.00
16461;BME280;8341;42.048;24.650;2022-08-23T01:50:19;96690.44;;;21.30;100.00
16461;BME280;8341;42.048;24.650;2022-08-23T01:52:46;96691.91;;;21.31;100.00
16461;BME280;8341;42.048;24.650;2022-08-23T01:55:13;96687.84;;;21.32;100.00
16461;BME280;8341;42.048;24.650;2022-08-23T01:57:42;96686.72;;;21.35;100.00
16461;BME280;8341;42.048;24.650;2022-08-23T02:00:10;96683.19;;;21.35;100.00
16461;BME280;8341;42.048;24.650;2022-08-23T02:02:37;96680.81;;;21.31;100.00
16461;BME280;8341;42.048;24.650;2022-08-23T02:05:05;96683.22;;;21.19;100.00
16461;BME280;8341;42.048;24.650;2022-08-23T02:07:32;96680.66;;;21.14;100.00
16461;BME280;8341;42.048;24.650;2022-08-23T02:09:59;96690.81;;;21.11;100.00
16461;BME280;8341;42.048;24.650;2022-08-23T02:12:26;96698.78;;;21.15;100.00
16461;BME280;8341;42.048;24.650;2022-08-23T02:14:54;96700.97;;;21.09;100.00
16461;BME280;8341;42.048;24.650;2022-08-23T02:17:21;96697.47;;;21.08;100.00
16461;BME280;8341;42.048;24.650;2022-08-23T02:19:48;96694.50;;;21.14;100.00
16461;BME280;8341;42.048;24.650;2022-08-23T02:22:15;96696.75;;;21.15;100.00
16461;BME280;8341;42.048;24.650;2022-08-23T02:24:44;96706.91;;;21.13;100.00
16461;BME280;8341;42.048;24.650;2022-08-23T02:27:12;96720.41;;;21.09;100.00
16461;BME280;8341;42.048;24.650;2022-08-23T02:29:40;96722.78;;;20.97;100.00
16461;BME280;8341;42.048;24.650;2022-08-23T02:32:09;96729.78;;;20.98;100.00
16461;BME280;8341;42.048;24.650;2022-08-23T02:34:38;96735.91;;;20.97;100.00
16461;BME280;8341;42.048;24.650;2022-08-23T02:37:05;96734.63;;;20.98;100.00
16461;BME280;8341;42.048;24.650;2022-08-23T02:39:33;96747.16;;;20.99;100.00
16461;BME280;8341;42.048;24.650;2022-08-23T02:42:00;96754.00;;;20.98;100.00
16461;BME280;8341;42.048;24.650;2022-08-23T02:44:27;96749.41;;;20.93;100.00
16461;BME280;8341;42.048;24.650;2022-08-23T02:46:59;96743.84;;;20.93;100.00
16461;BME280;8341;42.048;24.650;2022-08-23T02:49:27;96741.25;;;20.95;100.00
16461;BME280;8341;42.048;24.650;2022-08-23T02:51:54;96754.19;;;21.00;100.00
16461;BME280;8341;42.048;24.650;2022-08-23T02:54:21;96733.47;;;21.01;100.00
16461;BME280;8341;42.048;24.650;2022-08-23T02:56:48;96740.91;;;21.06;100.00
16461;BME280;8341;42.048;24.650;2022-08-23T02:59:16;96732.38;;;21.04;100.00
16461;BME280;8341;42.048;24.650;2022-08-23T03:01:43;96737.75;;;21.02;100.00
16461;BME280;8341;42.048;24.650;2022-08-23T03:04:10;96733.88;;;21.05;100.00
16461;BME280;8341;42.048;24.650;2022-08-23T03:06:39;96740.16;;;21.05;100.00
16461;BME280;8341;42.048;24.650;2022-08-23T03:09:06;96741.13;;;21.08;100.00
16461;BME280;8341;42.048;24.650;2022-08-23T03:11:34;96741.66;;;21.14;100.00
16461;BME280;8341;42.048;24.650;2022-08-23T03:14:01;96738.13;;;21.13;100.00
16461;BME280;8341;42.048;24.650;2022-08-23T03:16:28;96735.34;;;21.13;100.00
16461;BME280;8341;42.048;24.650;2022-08-23T03:18:55;96730.94;;;21.18;100.00
16461;BME280;8341;42.048;24.650;2022-08-23T03:21:22;96726.50;;;21.15;100.00
16461;BME280;8341;42.048;24.650;2022-08-23T03:23:50;96726.50;;;21.15;100.00
16461;BME280;8341;42.048;24.650;2022-08-23T03:26:18;96735.34;;;21.06;100.00
16461;BME280;8341;42.048;24.650;2022-08-23T03:28:45;96732.19;;;21.02;100.00
16461;BME280;8341;42.048;24.650;2022-08-23T03:31:14;96726.66;;;21.02;100.00
16461;BME280;8341;42.048;24.650;2022-08-23T03:33:41;96729.78;;;20.98;100.00
16461;BME280;8341;42.048;24.650;2022-08-23T03:36:10;96726.66;;;21.02;100.00
16461;BME280;8341;42.048;24.650;2022-08-23T03:38:37;96730.19;;;21.02;100.00
16461;BME280;8341;42.048;24.650;2022-08-23T03:41:06;96730.53;;;20.91;100.00
16461;BME280;8341;42.048;24.650;2022-08-23T03:43:34;96735.69;;;20.72;100.00
16461;BME280;8341;42.048;24.650;2022-08-23T03:46:01;96726.25;;;20.68;100.00
16461;BME280;8341;42.048;24.650;2022-08-23T03:48:28;96731.09;;;20.75;100.00
16461;BME280;8341;42.048;24.650;2022-08-23T03:50:55;96725.88;;;20.64;100.00
16461;BME280;8341;42.048;24.650;2022-08-23T03:53:21;96745.28;;;20.64;100.00
16461;BME280;8341;42.048;24.650;2022-08-23T03:55:49;96749.34;;;20.63;100.00
16461;BME280;8341;42.048;24.650;2022-08-23T03:58:17;96753.53;;;20.41;100.00
16461;BME280;8341;42.048;24.650;2022-08-23T04:00:45;96756.69;;;20.45;100.00
16461;BME280;8341;42.048;24.650;2022-08-23T04:03:12;96760.94;;;20.46;100.00
16461;BME280;8341;42.048;24.650;2022-08-23T04:05:39;96760.38;;;20.47;100.00
16461;BME280;8341;42.048;24.650;2022-08-23T04:08:07;96758.03;;;20.67;100.00
16461;BME280;8341;42.048;24.650;2022-08-23T04:10:35;96766.34;;;20.67;100.00
16461;BME280;8341;42.048;24.650;2022-08-23T04:13:03;96762.28;;;20.68;100.00
16461;BME280;8341;42.048;24.650;2022-08-23T04:15:32;96759.88;;;20.56;100.00
16461;BME280;8341;42.048;24.650;2022-08-23T04:17:59;96748.41;;;20.68;100.00
16461;BME280;8341;42.048;24.650;2022-08-23T04:20:26;96748.06;;;20.71;100.00
16461;BME280;8341;42.048;24.650;2022-08-23T04:22:53;96748.06;;;20.79;100.00
16461;BME280;8341;42.048;24.650;2022-08-23T04:25:21;96753.28;;;20.90;100.00
16461;BME280;8341;42.048;24.650;2022-08-23T04:27:49;96753.81;;;20.88;100.00
16461;BME280;8341;42.048;24.650;2022-08-23T04:30:16;96750.69;;;20.92;100.00
16461;BME280;8341;42.048;24.650;2022-08-23T04:32:46;96749.00;;;21.04;100.00
16461;BME280;8341;42.048;24.650;2022-08-23T04:35:13;96740.50;;;21.02;100.00
16461;BME280;8341;42.048;24.650;2022-08-23T04:37:41;96744.25;;;21.12;100.00
16461;BME280;8341;42.048;24.650;2022-08-23T04:40:09;96744.25;;;21.19;100.00
16461;BME280;8341;42.048;24.650;2022-08-23T04:42:53;96747.94;;;21.22;100.00
16461;BME280;8341;42.048;24.650;2022-08-23T04:45:20;96746.81;;;21.33;100.00
16461;BME280;8341;42.048;24.650;2022-08-23T04:47:48;96745.16;;;21.37;100.00
16461;BME280;8341;42.048;24.650;2022-08-23T14:30:27;96712.50;;;27.37;76.47
16461;BME280;8341;42.048;24.650;2022-08-23T14:32:54;96714.75;;;27.28;77.10
16461;BME280;8341;42.048;24.650;2022-08-23T14:35:21;96701.56;;;27.19;78.35
16461;BME280;8341;42.048;24.650;2022-08-23T14:37:48;96704.69;;;27.14;80.36
16461;BME280;8341;42.048;24.650;2022-08-23T14:40:15;96697.66;;;27.03;82.17
16461;BME280;8341;42.048;24.650;2022-08-23T14:42:42;96700.66;;;26.96;83.17
16461;BME280;8341;42.048;24.650;2022-08-23T14:45:10;96705.25;;;26.91;84.74
16461;BME280;8341;42.048;24.650;2022-08-23T14:47:40;96705.09;;;26.89;84.82
16461;BME280;8341;42.048;24.650;2022-08-23T14:50:08;96703.47;;;26.86;85.21
16461;BME280;8341;42.048;24.650;2022-08-23T14:52:39;96716.88;;;26.88;85.41
16461;BME280;8341;42.048;24.650;2022-08-23T14:55:07;96724.84;;;26.82;85.07
16461;BME280;8341;42.048;24.650;2022-08-23T14:57:34;96729.56;;;26.79;85.69
16461;BME280;8341;42.048;24.650;2022-08-23T15:00:02;96731.34;;;26.74;85.21
16461;BME280;8341;42.048;24.650;2022-08-23T15:02:32;96723.97;;;26.69;86.02
16461;BME280;8341;42.048;24.650;2022-08-23T15:05:02;96724.13;;;26.71;85.53
16461;BME280;8341;42.048;24.650;2022-08-23T15:07:29;96716.91;;;26.68;85.80
16461;BME280;8341;42.048;24.650;2022-08-23T15:09:56;96719.56;;;26.66;85.61
16461;BME280;8341;42.048;24.650;2022-08-23T15:12:23;96720.75;;;26.63;86.39
16461;BME280;8341;42.048;24.650;2022-08-23T15:14:50;96731.69;;;26.59;87.53
16461;BME280;8341;42.048;24.650;2022-08-23T15:17:17;96728.75;;;26.57;86.79
16461;BME280;8341;42.048;24.650;2022-08-23T15:19:44;96729.78;;;26.52;86.27
16461;BME280;8341;42.048;24.650;2022-08-23T15:22:12;96725.69;;;26.44;86.77
16461;BME280;8341;42.048;24.650;2022-08-23T15:24:39;96725.84;;;26.36;86.08
16461;BME280;8341;42.048;24.650;2022-08-23T15:27:06;96708.75;;;26.32;85.80
16461;BME280;8341;42.048;24.650;2022-08-23T15:29:33;96724.97;;;26.34;86.43
16461;BME280;8341;42.048;24.650;2022-08-23T15:32:00;96721.00;;;26.27;85.82
16461;BME280;8341;42.048;24.650;2022-08-23T15:34:27;96734.81;;;26.25;85.65
16461;BME280;8341;42.048;24.650;2022-08-23T15:36:54;96733.22;;;26.22;86.33
16461;BME280;8341;42.048;24.650;2022-08-23T15:39:22;96740.00;;;26.19;86.59
16461;BME280;8341;42.048;24.650;2022-08-23T15:41:49;96731.91;;;26.14;87.10
16461;BME280;8341;42.048;24.650;2022-08-23T15:44:16;96729.69;;;26.12;86.82
16461;BME280;8341;42.048;24.650;2022-08-23T15:46:45;96726.16;;;26.11;86.56
16461;BME280;8341;42.048;24.650;2022-08-23T15:49:15;96729.06;;;26.04;87.48
16461;BME280;8341;42.048;24.650;2022-08-23T15:51:43;96721.88;;;26.10;86.96
16461;BME280;8341;42.048;24.650;2022-08-23T15:54:10;96717.47;;;26.17;87.07
16461;BME280;8341;42.048;24.650;2022-08-23T15:56:40;96712.47;;;26.16;87.25
16461;BME280;8341;42.048;24.650;2022-08-23T15:59:10;96716.16;;;26.18;87.65
16461;BME280;8341;42.048;24.650;2022-08-23T16:01:38;96708.06;;;26.22;89.14
16461;BME280;8341;42.048;24.650;2022-08-23T16:04:05;96705.13;;;26.20;90.02
16461;BME280;8341;42.048;24.650;2022-08-23T16:06:33;96701.28;;;26.25;90.08
16461;BME280;8341;42.048;24.650;2022-08-23T16:09:02;96694.25;;;26.24;86.96
16461;BME280;8341;42.048;24.650;2022-08-23T16:11:29;96690.09;;;26.25;86.20
16461;BME280;8341;42.048;24.650;2022-08-23T16:13:58;96678.78;;;26.23;86.35
16461;BME280;8341;42.048;24.650;2022-08-23T16:16:26;96682.88;;;26.22;85.88
16461;BME280;8341;42.048;24.650;2022-08-23T16:18:56;96685.41;;;26.18;86.97
16461;BME280;8341;42.048;24.650;2022-08-23T16:21:24;96694.53;;;26.19;87.35
16461;BME280;8341;42.048;24.650;2022-08-23T16:23:51;96694.38;;;26.07;87.39
16461;BME280;8341;42.048;24.650;2022-08-23T16:26:21;96707.03;;;25.98;86.57
16461;BME280;8341;42.048;24.650;2022-08-23T16:28:52;96707.03;;;25.89;86.76
16461;BME280;8341;42.048;24.650;2022-08-23T16:31:21;96716.91;;;25.80;86.66
16461;BME280;8341;42.048;24.650;2022-08-23T16:33:53;96721.00;;;25.70;88.15
16461;BME280;8341;42.048;24.650;2022-08-23T16:36:20;96719.66;;;25.71;90.65
16461;BME280;8341;42.048;24.650;2022-08-23T16:38:47;96721.16;;;25.72;90.90
16461;BME280;8341;42.048;24.650;2022-08-23T16:41:15;96720.88;;;25.68;91.59
16461;BME280;8341;42.048;24.650;2022-08-23T16:43:42;96733.47;;;25.69;92.07
16461;BME280;8341;42.048;24.650;2022-08-23T16:46:09;96733.75;;;25.63;92.09
16461;BME280;8341;42.048;24.650;2022-08-23T16:48:37;96732.88;;;25.61;94.48
16461;BME280;8341;42.048;24.650;2022-08-23T16:51:04;96738.91;;;25.57;95.20
16461;BME280;8341;42.048;24.650;2022-08-23T16:53:31;96740.97;;;25.47;95.98
16461;BME280;8341;42.048;24.650;2022-08-23T16:55:58;96745.47;;;25.42;98.29
16461;BME280;8341;42.048;24.650;2022-08-23T16:58:25;96745.31;;;25.31;97.22
16461;BME280;8341;42.048;24.650;2022-08-23T17:00:52;96749.09;;;25.26;98.29
16461;BME280;8341;42.048;24.650;2022-08-23T17:03:19;96744.69;;;25.23;98.64
16461;BME280;8341;42.048;24.650;2022-08-23T17:05:47;96745.09;;;25.19;93.82
16461;BME280;8341;42.048;24.650;2022-08-23T17:08:14;96753.66;;;25.21;90.73
16461;BME280;8341;42.048;24.650;2022-08-23T17:10:42;96740.84;;;25.18;90.43
16461;BME280;8341;42.048;24.650;2022-08-23T17:13:10;96753.94;;;25.16;91.53
16461;BME280;8341;42.048;24.650;2022-08-23T17:15:39;96753.72;;;25.04;94.06
16461;BME280;8341;42.048;24.650;2022-08-23T17:18:06;96763.72;;;25.07;95.98
16461;BME280;8341;42.048;24.650;2022-08-23T17:20:35;96768.69;;;24.99;98.06
16461;BME280;8341;42.048;24.650;2022-08-23T17:23:05;96768.53;;;24.97;99.33
16461;BME280;8341;42.048;24.650;2022-08-23T17:25:32;96776.16;;;24.97;100.00
16461;BME280;8341;42.048;24.650;2022-08-23T17:27:59;96782.44;;;24.87;100.00
16461;BME280;8341;42.048;24.650;2022-08-23T17:30:26;96781.81;;;24.79;100.00
16461;BME280;8341;42.048;24.650;2022-08-23T17:32:54;96795.97;;;24.74;100.00
16461;BME280;8341;42.048;24.650;2022-08-23T17:35:24;96805.03;;;24.65;96.59
16461;BME280;8341;42.048;24.650;2022-08-23T17:37:52;96793.78;;;24.72;95.60
16461;BME280;8341;42.048;24.650;2022-08-23T17:40:24;96809.78;;;24.72;92.75
16461;BME280;8341;42.048;24.650;2022-08-23T17:42:51;96815.66;;;24.76;94.67
16461;BME280;8341;42.048;24.650;2022-08-23T17:45:18;96814.94;;;24.75;96.90
16461;BME280;8341;42.048;24.650;2022-08-23T17:47:45;96827.25;;;24.72;100.00
16461;BME280;8341;42.048;24.650;2022-08-23T17:50:13;96812.41;;;24.70;100.00
16461;BME280;8341;42.048;24.650;2022-08-23T17:52:40;96813.66;;;24.59;100.00
16461;BME280;8341;42.048;24.650;2022-08-23T17:55:08;96804.06;;;24.53;100.00
16461;BME280;8341;42.048;24.650;2022-08-23T17:57:36;96809.81;;;24.55;98.00
16461;BME280;8341;42.048;24.650;2022-08-23T18:00:04;96811.13;;;24.54;98.92
16461;BME280;8341;42.048;24.650;2022-08-23T18:02:31;96804.81;;;24.53;98.64
16461;BME280;8341;42.048;24.650;2022-08-23T18:04:58;96805.75;;;24.39;95.39
16461;BME280;8341;42.048;24.650;2022-08-23T18:07:25;96806.03;;;24.43;95.50
16461;BME280;8341;42.048;24.650;2022-08-23T18:09:52;96801.63;;;24.40;95.09
16461;BME280;8341;42.048;24.650;2022-08-23T18:12:19;96798.69;;;24.38;94.73
16461;BME280;8341;42.048;24.650;2022-08-23T18:14:49;96799.09;;;24.34;94.62
16461;BME280;8341;42.048;24.650;2022-08-23T18:17:16;96791.47;;;24.35;93.99
16461;BME280;8341;42.048;24.650;2022-08-23T18:19:43;96792.47;;;24.29;93.91
16461;BME280;8341;42.048;24.650;2022-08-23T18:22:11;96783.78;;;24.25;92.29
16461;BME280;8341;42.048;24.650;2022-08-23T18:24:38;96787.16;;;24.24;92.52
16461;BME280;8341;42.048;24.650;2022-08-23T18:27:05;96773.63;;;24.20;92.92
16461;BME280;8341;42.048;24.650;2022-08-23T18:29:53;96768.72;;;24.11;93.20
16461;BME280;8341;42.048;24.650;2022-08-23T18:32:19;96770.03;;;24.10;92.90
16461;BME280;8341;42.048;24.650;2022-08-23T18:34:47;96769.34;;;24.02;91.76
16461;BME280;8341;42.048;24.650;2022-08-23T18:37:14;96775.66;;;24.03;91.04
16461;BME280;8341;42.048;24.650;2022-08-23T18:39:42;96777.88;;;24.04;91.36
16461;BME280;8341;42.048;24.650;2022-08-23T18:42:09;96781.41;;;24.05;89.09
16461;BME280;8341;42.048;24.650;2022-08-23T18:44:36;96790.84;;;24.09;86.92
16461;BME280;8341;42.048;24.650;2022-08-23T18:47:04;96799.34;;;24.11;87.59
16461;BME280;8341;42.048;24.650;2022-08-23T18:49:32;96801.25;;;24.09;86.53
16461;BME280;8341;42.048;24.650;2022-08-23T18:51:59;96802.31;;;24.13;86.21
16461;BME280;8341;42.048;24.650;2022-08-23T18:54:27;96810.09;;;24.15;86.12
16461;BME280;8341;42.048;24.650;2022-08-23T18:56:54;96813.47;;;24.13;85.34
16461;BME280;8341;42.048;24.650;2022-08-23T18:59:20;96818.22;;;24.20;86.95
16461;BME280;8341;42.048;24.650;2022-08-23T19:01:47;96826.56;;;24.20;85.35
16461;BME280;8341;42.048;24.650;2022-08-23T19:04:17;96832.06;;;24.11;83.75
16461;BME280;8341;42.048;24.650;2022-08-23T19:06:44;96842.94;;;24.16;85.48
16461;BME280;8341;42.048;24.650;2022-08-23T19:09:11;96852.53;;;24.23;85.17
16461;BME280;8341;42.048;24.650;2022-08-23T19:11:39;96855.91;;;24.21;86.39
16461;BME280;8341;42.048;24.650;2022-08-23T19:14:06;96856.88;;;24.16;84.59
16461;BME280;8341;42.048;24.650;2022-08-23T19:16:35;96854.59;;;24.22;84.80
16461;BME280;8341;42.048;24.650;2022-08-23T19:19:03;96866.72;;;24.17;84.07
16461;BME280;8341;42.048;24.650;2022-08-23T19:21:32;96870.66;;;24.14;84.17
16461;BME280;8341;42.048;24.650;2022-08-23T19:23:59;96875.91;;;24.10;83.89
16461;BME280;8341;42.048;24.650;2022-08-23T19:26:29;96884.56;;;24.14;85.16
16461;BME280;8341;42.048;24.650;2022-08-23T19:28:57;96889.16;;;24.19;87.15
16461;BME280;8341;42.048;24.650;2022-08-23T19:31:24;96890.56;;;24.11;85.10
16461;BME280;8341;42.048;24.650;2022-08-23T19:33:53;96893.69;;;24.15;84.74
16461;BME280;8341;42.048;24.650;2022-08-23T19:36:21;96902.94;;;24.17;84.83
16461;BME280;8341;42.048;24.650;2022-08-23T19:38:49;96891.78;;;24.17;85.00
16461;BME280;8341;42.048;24.650;2022-08-23T19:41:16;96893.28;;;24.18;85.84
16461;BME280;8341;42.048;24.650;2022-08-23T19:43:43;96885.81;;;24.21;86.00
16461;BME280;8341;42.048;24.650;2022-08-23T19:46:10;96889.34;;;24.21;87.22
16461;BME280;8341;42.048;24.650;2022-08-23T19:48:41;96876.69;;;24.03;88.39
16461;BME280;8341;42.048;24.650;2022-08-23T19:51:11;96877.00;;;24.07;86.80
16461;BME280;8341;42.048;24.650;2022-08-23T19:53:39;96881.94;;;24.16;86.17
16461;BME280;8341;42.048;24.650;2022-08-23T19:56:07;96897.22;;;24.15;86.36
16461;BME280;8341;42.048;24.650;2022-08-23T19:58:34;96895.56;;;24.12;86.65
16461;BME280;8341;42.048;24.650;2022-08-23T20:01:01;96914.19;;;24.02;82.88
16461;BME280;8341;42.048;24.650;2022-08-23T20:03:28;96930.13;;;24.09;82.86
16461;BME280;8341;42.048;24.650;2022-08-23T20:05:55;96934.56;;;23.88;83.35
16461;BME280;8341;42.048;24.650;2022-08-23T20:08:21;96940.69;;;23.86;78.89
16461;BME280;8341;42.048;24.650;2022-08-23T20:10:49;96933.31;;;23.81;79.13
16461;BME280;8341;42.048;24.650;2022-08-23T20:13:17;96923.13;;;23.76;81.98
16461;BME280;8341;42.048;24.650;2022-08-23T20:15:47;96918.59;;;23.39;75.98
16461;BME280;8341;42.048;24.650;2022-08-23T20:18:14;96919.09;;;23.13;78.06
16461;BME280;8341;42.048;24.650;2022-08-23T20:20:41;96920.56;;;23.14;82.26
16461;BME280;8341;42.048;24.650;2022-08-23T20:23:08;96933.16;;;23.15;83.50
16461;BME280;8341;42.048;24.650;2022-08-23T20:25:52;96938.25;;;22.93;82.28
16461;BME280;8341;42.048;24.650;2022-08-23T20:28:21;96944.19;;;22.97;82.11
16461;BME280;8341;42.048;24.650;2022-08-23T20:30:48;96956.63;;;22.89;82.24
16461;BME280;8341;42.048;24.650;2022-08-23T20:33:15;96972.44;;;22.79;82.96
16461;BME280;8341;42.048;24.650;2022-08-23T20:35:42;96975.41;;;22.73;83.60
16461;BME280;8341;42.048;24.650;2022-08-23T20:38:09;96970.75;;;22.76;83.81
16461;BME280;8341;42.048;24.650;2022-08-23T20:40:35;96978.72;;;22.87;84.68
16461;BME280;8341;42.048;24.650;2022-08-23T20:43:03;96976.09;;;22.89;85.06
16461;BME280;8341;42.048;24.650;2022-08-23T20:45:31;96978.34;;;22.90;86.24
16461;BME280;8341;42.048;24.650;2022-08-23T20:47:58;96973.22;;;22.64;86.63
16461;BME280;8341;42.048;24.650;2022-08-23T20:50:25;96970.63;;;22.66;86.13
16461;BME280;8341;42.048;24.650;2022-08-23T20:52:51;96963.78;;;22.67;88.37
16461;BME280;8341;42.048;24.650;2022-08-23T20:55:18;96964.31;;;22.66;88.74
16461;BME280;8341;42.048;24.650;2022-08-23T20:57:45;96970.44;;;22.64;87.39
16461;BME280;8341;42.048;24.650;2022-08-23T21:00:12;96969.88;;;22.66;87.93
16461;BME280;8341;42.048;24.650;2022-08-23T21:02:41;96968.38;;;22.72;88.25
16461;BME280;8341;42.048;24.650;2022-08-23T21:05:08;96959.66;;;22.68;88.82
16461;BME280;8341;42.048;24.650;2022-08-23T21:07:35;96967.06;;;22.73;90.06
16461;BME280;8341;42.048;24.650;2022-08-23T21:10:02;96966.69;;;22.77;90.50
16461;BME280;8341;42.048;24.650;2022-08-23T21:12:29;96964.91;;;22.49;90.02
16461;BME280;8341;42.048;24.650;2022-08-23T21:14:56;96977.34;;;22.10;96.85
16461;BME280;8341;42.048;24.650;2022-08-23T21:17:23;96982.16;;;22.02;100.00
16461;BME280;8341;42.048;24.650;2022-08-23T21:19:51;96979.69;;;21.76;100.00
16461;BME280;8341;42.048;24.650;2022-08-23T21:22:18;96978.41;;;21.69;100.00
16461;BME280;8341;42.048;24.650;2022-08-23T21:24:45;96980.63;;;21.63;100.00
16461;BME280;8341;42.048;24.650;2022-08-23T21:27:12;96982.41;;;21.38;100.00
16461;BME280;8341;42.048;24.650;2022-08-23T21:29:38;96977.22;;;21.42;100.00
16461;BME280;8341;42.048;24.650;2022-08-23T21:32:05;96963.91;;;21.33;100.00
16461;BME280;8341;42.048;24.650;2022-08-23T21:34:33;96973.31;;;21.30;100.00
16461;BME280;8341;42.048;24.650;2022-08-23T21:37:02;96981.31;;;21.41;100.00
16461;BME280;8341;42.048;24.650;2022-08-23T21:39:28;96976.88;;;21.38;100.00
16461;BME280;8341;42.048;24.650;2022-08-23T21:41:55;96985.00;;;21.36;98.38
16461;BME280;8341;42.048;24.650;2022-08-23T21:44:22;96987.91;;;21.23;98.61
16461;BME280;8341;42.048;24.650;2022-08-23T21:46:50;96990.50;;;21.21;100.00
16461;BME280;8341;42.048;24.650;2022-08-23T21:49:17;97007.19;;;21.29;100.00
16461;BME280;8341;42.048;24.650;2022-08-23T21:51:45;96999.41;;;21.35;100.00
16461;BME280;8341;42.048;24.650;2022-08-23T21:54:14;97002.75;;;21.41;100.00
16461;BME280;8341;42.048;24.650;2022-08-23T21:56:42;97000.94;;;21.51;100.00
16461;BME280;8341;42.048;24.650;2022-08-23T21:59:11;96996.16;;;21.59;100.00
16461;BME280;8341;42.048;24.650;2022-08-23T22:01:39;96986.16;;;21.63;100.00
16461;BME280;8341;42.048;24.650;2022-08-23T22:04:08;96989.34;;;21.75;100.00
16461;BME280;8341;42.048;24.650;2022-08-23T22:06:38;96986.94;;;21.79;100.00
16461;BME280;8341;42.048;24.650;2022-08-23T22:09:06;96969.53;;;21.71;100.00
16461;BME280;8341;42.048;24.650;2022-08-23T22:11:35;96968.78;;;21.78;100.00
16461;BME280;8341;42.048;24.650;2022-08-23T22:14:05;96971.72;;;21.72;100.00
16461;BME280;8341;42.048;24.650;2022-08-23T22:16:33;96991.22;;;21.88;99.24
16461;BME280;8341;42.048;24.650;2022-08-23T22:19:00;96989.56;;;21.92;98.14
16461;BME280;8341;42.048;24.650;2022-08-23T22:21:27;96990.84;;;21.99;97.92
16461;BME280;8341;42.048;24.650;2022-08-23T22:23:54;96998.44;;;21.98;97.22
16461;BME280;8341;42.048;24.650;2022-08-23T22:26:21;96995.13;;;22.00;98.08
16461;BME280;8341;42.048;24.650;2022-08-23T22:28:49;96989.56;;;22.00;96.93
16461;BME280;8341;42.048;24.650;2022-08-23T22:31:16;96994.38;;;22.07;95.66
16461;BME280;8341;42.048;24.650;2022-08-23T22:33:43;96998.63;;;22.08;95.74
16461;BME280;8341;42.048;24.650;2022-08-23T22:36:14;97001.78;;;22.12;95.24
16461;BME280;8341;42.048;24.650;2022-08-23T22:38:42;97005.47;;;22.14;94.47
16461;BME280;8341;42.048;24.650;2022-08-23T22:41:09;96987.72;;;22.10;94.83